Time;durP1;ratioP1;P1;durP2;ratioP2;P2;SDS_P1;SDS_P2;PMS_P1;PMS_P2;Temp;Humidity;BMP_temperature;BMP_pressure;BME280_temperature;BME280_humidity;BME280_pressure;Samples;Min_cycle;Max_cycle;Signal;HPM_P1;HPM_P2
2021/11/21 00:01:42;;;;;;;1.23;1.10;;;19.70;48.20;;;23.49;32.69;100744.81;5094554;28;20080;-47
2021/11/21 00:04:08;;;;;;;1.15;1.05;;;19.80;48.30;;;23.49;32.49;100740.31;5094787;28;20086;-43
2021/11/21 00:06:34;;;;;;;1.30;1.20;;;19.70;48.20;;;23.50;32.43;100735.81;5094859;28;20506;-44
2021/11/21 00:09:00;;;;;;;1.55;1.30;;;19.80;48.30;;;23.47;32.57;100731.56;5094468;28;20044;-46
2021/11/21 00:11:26;;;;;;;0.80;0.80;;;19.70;48.20;;;23.52;32.55;100733.03;5094391;28;20063;-45
2021/11/21 00:13:52;;;;;;;0.98;0.90;;;19.70;48.20;;;23.45;32.69;100711.28;5094623;28;20044;-44
2021/11/21 00:16:19;;;;;;;1.20;1.10;;;19.70;48.30;;;23.46;32.52;100705.84;5094265;28;20130;-43
2021/11/21 00:18:45;;;;;;;1.10;1.00;;;19.70;48.20;;;23.48;32.67;100703.91;5094005;28;20078;-48
2021/11/21 00:21:11;;;;;;;1.25;1.15;;;19.70;48.30;;;23.45;32.57;100700.63;5094150;28;20052;-44
2021/11/21 00:23:37;;;;;;;1.40;1.30;;;19.70;48.30;;;23.44;32.48;100680.25;5094372;28;20434;-49
2021/11/21 00:26:03;;;;;;;1.10;1.00;;;19.70;48.30;;;23.44;32.40;100682.94;5094024;28;20052;-47
2021/11/21 00:28:29;;;;;;;1.42;1.13;;;19.70;48.30;;;23.46;32.65;100689.84;5094061;28;20052;-42
2021/11/21 00:30:55;;;;;;;1.20;1.10;;;19.70;48.30;;;23.48;32.51;100684.38;5094608;28;20059;-41
2021/11/21 00:33:22;;;;;;;0.98;0.93;;;19.70;48.30;;;23.48;32.62;100674.56;5094285;28;20040;-49
2021/11/21 00:35:48;;;;;;;1.58;1.30;;;19.70;48.20;;;23.45;32.63;100661.44;5094052;28;20510;-43
2021/11/21 00:38:14;;;;;;;2.08;1.20;;;19.80;48.20;;;23.48;32.48;100661.22;5075250;28;20056;-43
2021/11/21 00:40:40;;;;;;;1.73;1.52;;;19.70;48.10;;;23.49;32.49;100662.91;5093781;28;20044;-44
2021/11/21 00:43:07;;;;;;;1.10;1.00;;;19.80;48.20;;;23.47;32.49;100656.84;5093529;28;20055;-42
2021/11/21 00:45:33;;;;;;;1.38;1.27;;;19.80;48.10;;;23.50;32.41;100663.75;5093866;28;20050;-42
2021/11/21 00:47:59;;;;;;;1.35;1.25;;;19.80;48.10;;;23.49;32.66;100654.06;5074434;28;20127;-42
2021/11/21 00:50:28;;;;;;;1.17;1.02;;;19.80;48.20;;;23.50;32.43;100653.09;5094094;28;20108;-43
2021/11/21 00:53:02;;;;;;;1.02;1.02;;;19.80;48.20;;;23.48;32.41;100647.03;5093413;28;20056;-42
2021/11/21 00:55:34;;;;;;;1.60;1.38;;;19.80;48.20;;;23.51;32.46;100645.94;5093676;28;20086;-42
2021/11/21 00:58:01;;;;;;;1.20;1.10;;;19.80;48.20;;;23.50;32.54;100639.75;5093392;28;20131;-42
2021/11/21 01:00:27;;;;;;;1.20;1.10;;;19.80;48.10;;;23.47;32.63;100634.63;5093627;28;20048;-44
2021/11/21 01:02:53;;;;;;;1.00;1.00;;;19.70;48.10;;;23.50;32.67;100642.41;5093853;28;20047;-45
2021/11/21 01:05:20;;;;;;;1.25;1.15;;;19.70;48.20;;;23.47;32.62;100629.31;5093540;28;20126;-47
2021/11/21 01:07:45;;;;;;;1.20;1.10;;;19.80;48.30;;;23.48;32.57;100628.34;5093266;28;20047;-44
2021/11/21 01:10:16;;;;;;;1.23;1.13;;;19.70;48.20;;;23.48;32.49;100628.34;5093443;28;20052;-43
2021/11/21 01:12:42;;;;;;;1.67;1.10;;;19.70;48.20;;;23.46;32.46;100614.28;5093749;28;20434;-44
2021/11/21 01:15:14;;;;;;;1.20;1.10;;;19.70;48.20;;;23.45;32.68;100620.56;5093370;28;20036;-46
2021/11/21 01:17:41;;;;;;;1.15;1.10;;;19.70;48.20;;;23.48;32.62;100615.84;5093449;28;20100;-43
2021/11/21 01:20:09;;;;;;;1.38;1.10;;;19.70;48.20;;;23.44;32.69;100598.38;5093147;28;20047;-45
2021/11/21 01:22:35;;;;;;;1.83;1.40;;;19.70;48.20;;;23.44;32.64;100609.06;5093189;28;20116;-43
2021/11/21 01:25:04;;;;;;;1.45;1.27;;;19.70;48.20;;;23.44;32.72;100592.19;5093200;28;20476;-47
2021/11/21 01:27:29;;;;;;;1.20;1.10;;;19.80;48.20;;;23.47;32.57;100597.28;5093141;28;20051;-45
2021/11/21 01:29:55;;;;;;;0.88;0.88;;;19.70;48.10;;;23.47;32.49;100598.16;5093026;28;20056;-45
2021/11/21 01:32:22;;;;;;;1.02;0.93;;;19.80;48.20;;;23.46;32.62;100587.59;5093128;28;20488;-44
2021/11/21 01:34:49;;;;;;;1.48;1.17;;;19.70;48.10;;;23.45;32.47;100588.53;5093586;28;20488;-43
2021/11/21 01:37:15;;;;;;;1.25;1.10;;;19.80;48.10;;;23.50;32.59;100599.72;5092629;28;20047;-43
2021/11/21 01:39:41;;;;;;;1.30;1.20;;;19.80;48.10;;;23.48;32.38;100588.31;5092533;28;20513;-44
2021/11/21 01:42:08;;;;;;;1.30;1.20;;;19.80;48.10;;;23.50;32.60;100586.38;5092984;28;20083;-43
2021/11/21 01:44:34;;;;;;;1.30;1.20;;;19.80;48.10;;;23.48;32.46;100577.66;5093005;28;20445;-44
2021/11/21 01:46:59;;;;;;;1.33;1.20;;;19.80;48.10;;;23.47;32.38;100578.59;5092814;28;20048;-45
2021/11/21 01:49:25;;;;;;;1.23;1.10;;;19.80;48.10;;;23.50;32.60;100583.72;5092855;28;20047;-46
2021/11/21 01:51:51;;;;;;;1.30;1.20;;;19.80;48.10;;;23.46;32.46;100569.75;5093282;28;20043;-46
2021/11/21 01:54:18;;;;;;;1.60;1.33;;;19.80;48.20;;;23.44;32.54;100574.38;5092765;28;20044;-43
2021/11/21 01:56:46;;;;;;;1.35;1.25;;;19.70;48.20;;;23.48;32.50;100577.66;5092719;28;20127;-44
2021/11/21 01:59:12;;;;;;;1.15;1.05;;;19.70;48.20;;;23.47;32.41;100570.59;5073610;28;20051;-43
2021/11/21 02:01:38;;;;;;;1.63;1.33;;;19.70;48.20;;;23.46;32.35;100571.59;5092736;28;20132;-45
2021/11/21 02:04:04;;;;;;;1.20;1.10;;;19.70;48.30;;;23.42;32.60;100562.97;5092737;28;20485;-45
2021/11/21 02:06:30;;;;;;;1.63;1.10;;;19.70;48.30;;;23.44;32.74;100560.19;5092702;28;20050;-44
2021/11/21 02:08:57;;;;;;;1.10;1.00;;;19.70;48.30;;;23.43;32.37;100553.97;5092768;28;20040;-46
2021/11/21 02:11:25;;;;;;;1.02;0.90;;;19.70;48.30;;;23.41;32.55;100545.25;5092645;28;20048;-46
2021/11/21 02:13:53;;;;;;;1.48;1.30;;;19.70;48.30;;;23.41;32.50;100539.06;5092579;28;20048;-49
2021/11/21 02:16:22;;;;;;;1.45;1.33;;;19.70;48.30;;;23.43;32.56;100545.13;5092513;28;20072;-44
2021/11/21 02:18:49;;;;;;;1.67;1.55;;;19.70;48.30;;;23.42;32.46;100538.09;5092302;28;20040;-43
2021/11/21 02:21:18;;;;;;;1.98;1.35;;;19.70;48.20;;;23.44;32.49;100536.16;5092673;28;20051;-48
2021/11/21 02:23:45;;;;;;;1.45;1.35;;;19.70;48.20;;;23.41;32.57;100534.56;5092723;28;20444;-46
2021/11/21 02:26:13;;;;;;;1.35;1.25;;;19.70;48.20;;;23.41;32.32;100528.41;5092321;28;20097;-42
2021/11/21 02:28:39;;;;;;;1.17;1.05;;;19.70;48.20;;;23.46;32.56;100531.56;5092243;28;20044;-49
2021/11/21 02:31:06;;;;;;;1.20;1.10;;;19.70;48.10;;;23.46;32.53;100536.91;5092335;28;20510;-43
2021/11/21 02:33:32;;;;;;;1.23;1.10;;;19.70;48.20;;;23.46;32.56;100531.56;5092653;28;20048;-41
2021/11/21 02:36:02;;;;;;;1.10;1.10;;;19.80;48.20;;;23.43;32.41;100524.63;5092357;28;20071;-47
2021/11/21 02:38:29;;;;;;;1.15;1.10;;;19.80;48.20;;;23.43;32.39;100526.44;5091919;28;20044;-44
2021/11/21 02:41:00;;;;;;;1.23;1.13;;;19.70;48.10;;;23.47;32.47;100530.56;5092420;28;20055;-43
2021/11/21 02:43:26;;;;;;;1.05;0.95;;;19.80;48.10;;;23.48;32.58;100532.28;5092202;28;20094;-46
2021/11/21 02:45:56;;;;;;;1.48;1.30;;;19.70;48.10;;;23.47;32.68;100530.56;5092360;28;20050;-43
2021/11/21 02:48:27;;;;;;;1.58;1.48;;;19.70;48.10;;;23.44;32.66;100530.84;5092499;28;20055;-42
2021/11/21 02:50:55;;;;;;;1.30;1.20;;;19.70;48.10;;;23.44;32.66;100518.34;5094098;28;20055;-47
2021/11/21 02:53:27;;;;;;;1.30;1.13;;;19.80;48.20;;;23.45;32.61;100516.50;5095616;28;20040;-43
2021/11/21 02:55:57;;;;;;;2.17;1.20;;;19.70;48.20;;;23.43;32.42;100513.13;5095525;28;20040;-41
2021/11/21 02:58:24;;;;;;;1.17;1.02;;;19.70;48.20;;;23.42;32.34;100511.41;5077420;28;20371;-42
2021/11/21 03:00:53;;;;;;;1.17;1.08;;;19.70;48.20;;;23.45;32.70;100508.50;5095359;28;20059;-41
2021/11/21 03:03:18;;;;;;;1.20;1.10;;;19.70;48.10;;;23.43;32.46;100505.09;5095392;28;20109;-42
2021/11/21 03:05:44;;;;;;;1.00;1.00;;;19.70;48.10;;;23.46;32.45;100511.06;5095537;28;20048;-44
2021/11/21 03:08:10;;;;;;;1.10;0.98;;;19.80;48.10;;;23.44;32.48;100499.66;5095359;28;20048;-46
2021/11/21 03:10:36;;;;;;;1.35;1.25;;;19.80;48.10;;;23.46;32.50;100511.06;5095380;28;20055;-43
2021/11/21 03:13:07;;;;;;;1.60;1.30;;;19.80;48.00;;;23.46;32.41;100504.88;5095023;28;20048;-42
2021/11/21 03:15:34;;;;;;;0.90;0.80;;;19.80;48.00;;;23.52;32.48;100501.72;5095359;28;20059;-43
2021/11/21 03:18:02;;;;;;;1.10;1.00;;;19.80;48.10;;;23.48;32.62;100501.09;5094763;28;20287;-47
2021/11/21 03:20:32;;;;;;;1.30;1.20;;;19.80;48.00;;;23.51;32.45;100508.03;5095118;28;20082;-43
2021/11/21 03:22:59;;;;;;;1.20;1.10;;;19.80;48.00;;;23.49;32.54;100504.63;5095325;28;20402;-46
2021/11/21 03:25:26;;;;;;;1.85;1.33;;;19.80;48.00;;;23.51;32.30;100499.19;5094886;28;20052;-44
2021/11/21 03:27:52;;;;;;;1.30;1.13;;;19.80;48.00;;;23.47;32.33;100501.22;5094883;28;20173;-46
2021/11/21 03:30:21;;;;;;;1.40;1.30;;;19.80;48.00;;;23.49;32.44;100509.97;5095051;28;20080;-47
2021/11/21 03:32:48;;;;;;;1.23;1.13;;;19.80;48.00;;;23.48;32.41;100506.44;5094919;28;20055;-43
2021/11/21 03:35:15;;;;;;;1.20;1.08;;;19.80;48.00;;;23.49;32.23;100509.97;5094987;28;20051;-48
2021/11/21 03:37:41;;;;;;;1.67;1.10;;;19.80;48.00;;;23.50;32.45;100514.31;5094756;28;20090;-45
2021/11/21 03:40:11;;;;;;;1.45;1.20;;;19.80;48.00;;;23.46;32.58;100502.22;5095122;28;20054;-46
2021/11/21 03:42:38;;;;;;;1.30;1.20;;;19.80;48.00;;;23.44;32.45;100510.31;5095139;28;20072;-49
2021/11/21 03:45:06;;;;;;;1.88;1.42;;;19.80;48.00;;;23.46;32.65;100519.06;5094808;28;20048;-47
2021/11/21 03:47:32;;;;;;;1.30;0.95;;;19.80;48.00;;;23.45;32.50;100519.16;5094844;28;20122;-47
2021/11/21 03:49:58;;;;;;;1.40;1.17;;;19.80;48.50;;;23.47;32.42;100526.09;5094820;28;20078;-43
2021/11/21 03:52:24;;;;;;;1.77;1.30;;;19.80;48.00;;;23.47;32.43;100517.22;5094747;28;20044;-47
2021/11/21 03:54:49;;;;;;;1.05;1.00;;;19.80;48.00;;;23.45;32.47;100512.00;5094563;28;20098;-44
2021/11/21 03:57:15;;;;;;;1.25;1.10;;;19.80;48.00;;;23.51;32.36;100518.72;5094498;28;20040;-43
2021/11/21 03:59:41;;;;;;;1.20;1.10;;;19.80;47.90;;;23.48;32.42;100511.78;5094446;28;20055;-45
2021/11/21 04:02:07;;;;;;;1.60;1.33;;;19.80;47.90;;;23.51;32.58;100513.38;5093909;28;20040;-46
2021/11/21 04:04:35;;;;;;;1.65;1.25;;;19.80;48.00;;;23.51;32.38;100516.03;5094791;28;20069;-45
2021/11/21 04:07:02;;;;;;;1.20;1.10;;;19.80;47.90;;;23.51;32.25;100513.38;5094306;28;20051;-44
2021/11/21 04:09:28;;;;;;;2.25;1.10;;;19.80;48.00;;;23.48;32.36;100508.25;5094187;28;20044;-44
2021/11/21 04:11:54;;;;;;;1.25;1.15;;;19.80;48.00;;;23.47;32.43;100501.22;5094408;28;20048;-46
2021/11/21 04:14:20;;;;;;;1.55;1.25;;;19.80;48.00;;;23.49;32.42;100504.63;5094326;28;20137;-44
2021/11/21 04:16:47;;;;;;;1.90;1.30;;;19.80;48.00;;;23.51;32.58;100507.19;5094313;28;20403;-45
2021/11/21 04:19:14;;;;;;;1.40;1.30;;;19.80;48.00;;;23.48;32.31;100508.25;5094153;28;20052;-44
2021/11/21 04:21:40;;;;;;;1.13;1.02;;;19.80;48.00;;;23.46;32.43;100497.72;5094324;28;20054;-48
2021/11/21 04:24:12;;;;;;;1.20;1.10;;;19.80;48.00;;;23.48;32.46;100506.44;5094318;28;20559;-46
2021/11/21 04:26:40;;;;;;;1.90;1.42;;;19.80;48.00;;;23.51;32.55;100505.38;5094250;28;20044;-49
2021/11/21 04:29:07;;;;;;;1.60;1.40;;;19.80;48.00;;;23.48;32.33;100508.25;5094064;28;20044;-42
2021/11/21 04:31:33;;;;;;;1.23;1.13;;;19.80;48.00;;;23.46;32.56;100500.38;5094089;28;20040;-46
2021/11/21 04:33:58;;;;;;;1.02;1.00;;;19.80;48.00;;;23.45;32.47;100496.00;5094274;28;20075;-45
2021/11/21 04:36:24;;;;;;;1.77;1.40;;;19.80;48.00;;;23.49;32.42;100504.63;5094278;28;20509;-45
2021/11/21 04:38:50;;;;;;;1.27;1.15;;;19.80;48.00;;;23.48;32.46;100500.25;5093797;28;20051;-45
2021/11/21 04:41:16;;;;;;;1.42;1.33;;;19.80;48.00;;;23.48;32.45;100502.94;5094442;28;20056;-42
2021/11/21 04:43:42;;;;;;;1.58;1.20;;;19.80;48.00;;;23.45;32.42;100496.00;5094020;28;20040;-43
2021/11/21 04:46:08;;;;;;;1.40;1.30;;;19.80;48.00;;;23.48;32.30;100506.44;5094376;28;20103;-46
2021/11/21 04:48:34;;;;;;;1.45;1.33;;;19.80;48.00;;;23.49;32.68;100501.97;5093745;28;20135;-45
2021/11/21 04:51:01;;;;;;;1.10;1.00;;;19.80;48.00;;;23.46;32.63;100502.22;5074077;28;20377;-44
2021/11/21 04:53:27;;;;;;;1.40;1.15;;;19.80;48.00;;;23.48;32.49;100503.78;5093987;28;20395;-43
2021/11/21 04:55:54;;;;;;;1.20;1.10;;;19.80;48.00;;;23.46;32.47;100491.53;5093658;28;20060;-42
2021/11/21 04:58:20;;;;;;;1.30;1.20;;;19.80;48.00;;;23.48;32.40;100487.75;5093620;28;20052;-43
2021/11/21 05:00:45;;;;;;;1.23;1.13;;;19.80;48.00;;;23.46;32.43;100492.38;5093573;28;20156;-42
2021/11/21 05:03:11;;;;;;;1.45;1.20;;;19.80;48.00;;;23.45;32.45;100493.34;5093473;28;20044;-43
2021/11/21 05:05:37;;;;;;;1.15;1.05;;;19.80;48.00;;;23.47;32.53;100501.22;5093668;28;20047;-45
2021/11/21 05:08:04;;;;;;;1.20;1.10;;;19.80;47.90;;;23.47;32.46;100498.53;5093350;28;20051;-43
2021/11/21 05:10:31;;;;;;;1.48;1.20;;;19.80;48.00;;;23.49;32.25;100502.81;5093424;28;20488;-44
2021/11/21 05:12:57;;;;;;;1.05;0.95;;;19.80;48.50;;;23.47;32.46;100496.75;5092431;28;20048;-43
2021/11/21 05:15:24;;;;;;;1.27;0.90;;;19.80;48.00;;;23.50;32.49;100506.31;5093257;28;20050;-43
2021/11/21 05:17:50;;;;;;;1.23;1.10;;;19.80;48.00;;;23.47;32.61;100501.22;5093223;28;20056;-44
2021/11/21 05:20:18;;;;;;;1.33;1.23;;;19.80;47.90;;;23.47;32.44;100496.75;5092987;28;20044;-44
2021/11/21 05:22:46;;;;;;;1.30;1.20;;;19.80;48.00;;;23.47;32.44;100496.75;5093126;28;20514;-41
2021/11/21 05:25:14;;;;;;;2.08;1.40;;;19.80;48.00;;;23.44;32.61;100488.97;5093256;28;20495;-47
2021/11/21 05:27:46;;;;;;;0.90;0.90;;;19.80;48.00;;;23.49;32.56;100497.47;5093379;28;20124;-46
2021/11/21 05:30:14;;;;;;;1.25;0.90;;;19.80;48.00;;;23.51;32.35;100507.19;5093027;28;20134;-42
2021/11/21 05:32:42;;;;;;;1.65;1.25;;;19.80;48.00;;;23.51;32.40;100497.34;5093109;28;20510;-45
2021/11/21 05:35:08;;;;;;;1.52;1.20;;;19.80;47.90;;;23.49;32.31;100499.31;5093087;28;20059;-43
2021/11/21 05:37:36;;;;;;;1.40;1.20;;;19.80;48.00;;;23.46;32.53;100496.88;5092962;28;20051;-43
2021/11/21 05:40:08;;;;;;;1.17;1.08;;;19.80;48.00;;;23.43;32.48;100495.28;5093231;28;20048;-42
2021/11/21 05:42:34;;;;;;;1.13;1.00;;;19.80;48.10;;;23.48;32.37;100497.59;5093000;28;20040;-42
2021/11/21 05:45:00;;;;;;;1.60;1.42;;;19.70;48.10;;;23.42;32.42;100484.72;5092820;28;20056;-44
2021/11/21 05:47:26;;;;;;;1.85;1.38;;;19.70;48.10;;;23.46;32.45;100499.53;5093180;28;20080;-43
2021/11/21 05:49:52;;;;;;;1.10;1.00;;;19.70;48.00;;;23.45;32.29;100501.34;5092670;28;20143;-44
2021/11/21 05:52:18;;;;;;;1.30;1.20;;;19.70;48.00;;;23.44;32.39;100498.81;5093087;28;20051;-46
2021/11/21 05:54:44;;;;;;;1.45;1.30;;;19.70;48.10;;;23.42;32.47;100482.06;5093030;28;20040;-45
2021/11/21 05:57:12;;;;;;;1.20;1.10;;;19.70;48.10;;;23.44;32.34;100494.31;5092806;28;20048;-46
2021/11/21 05:59:39;;;;;;;1.20;1.10;;;19.70;48.10;;;23.45;32.31;100497.81;5092696;28;20059;-43
2021/11/21 06:02:06;;;;;;;1.38;0.90;;;19.70;48.00;;;23.46;32.43;100500.38;5092722;28;20071;-47
2021/11/21 06:04:32;;;;;;;1.30;1.20;;;19.70;48.00;;;23.44;32.34;100491.66;5092611;28;20044;-42
2021/11/21 06:06:58;;;;;;;1.20;1.10;;;19.70;48.00;;;23.43;32.42;100489.09;5092677;28;20040;-46
2021/11/21 06:09:24;;;;;;;1.17;1.08;;;19.80;48.10;;;23.43;32.61;100491.78;5092449;28;20536;-43
2021/11/21 06:11:53;;;;;;;0.90;0.90;;;19.70;48.00;;;23.42;32.41;100490.94;5092493;28;20531;-44
2021/11/21 06:14:20;;;;;;;1.05;0.95;;;19.70;48.00;;;23.42;32.41;100485.59;5092519;28;20101;-44
2021/11/21 06:16:46;;;;;;;1.40;1.30;;;19.70;48.00;;;23.44;32.59;100491.66;5092540;28;20415;-46
2021/11/21 06:19:12;;;;;;;1.20;1.10;;;19.70;48.00;;;23.42;32.48;100485.59;5092369;28;20044;-48
2021/11/21 06:21:38;;;;;;;1.25;1.15;;;19.70;48.00;;;23.44;32.27;100494.31;5092427;28;20079;-45
2021/11/21 06:24:04;;;;;;;1.50;1.33;;;19.80;48.10;;;23.43;32.43;100492.59;5093430;28;20411;-49
2021/11/21 06:26:30;;;;;;;2.03;1.20;;;19.80;48.00;;;23.44;32.37;100498.81;5096052;28;20109;-42
2021/11/21 06:28:57;;;;;;;1.10;1.00;;;19.70;48.00;;;23.46;32.41;100496.88;5095958;28;20484;-44
2021/11/21 06:31:23;;;;;;;1.55;1.45;;;19.70;48.00;;;23.43;32.53;100497.94;5095939;28;20066;-44
2021/11/21 06:33:49;;;;;;;1.20;1.10;;;19.70;48.00;;;23.43;32.40;100491.78;5095824;28;20048;-45
2021/11/21 06:36:15;;;;;;;1.48;1.10;;;19.70;48.00;;;23.41;32.44;100499.88;5095959;28;20483;-44
2021/11/21 06:38:42;;;;;;;1.10;1.00;;;19.70;48.00;;;23.44;32.45;100499.66;5077580;28;20059;-45
2021/11/21 06:41:08;;;;;;;1.30;1.20;;;19.70;48.00;;;23.45;32.50;100500.50;5077495;28;20522;-43
2021/11/21 06:43:34;;;;;;;1.38;1.13;;;19.70;48.00;;;23.45;32.33;100497.81;5095724;28;20052;-43
2021/11/21 06:46:01;;;;;;;1.30;1.20;;;19.80;48.00;;;23.44;32.40;100494.31;5095745;28;20036;-45
2021/11/21 06:48:28;;;;;;;1.42;1.20;;;19.80;48.10;;;23.45;32.63;100500.50;5095560;28;20048;-42
2021/11/21 06:50:55;;;;;;;1.38;1.13;;;19.80;48.10;;;23.45;32.31;100495.16;5096258;28;20068;-44
2021/11/21 06:53:22;;;;;;;1.10;1.00;;;19.70;48.00;;;23.43;32.59;100486.44;5095504;28;20052;-46
2021/11/21 06:55:49;;;;;;;1.40;1.10;;;19.70;48.00;;;23.42;32.37;100501.59;5095544;28;20127;-45
2021/11/21 06:58:15;;;;;;;1.30;1.10;;;19.70;48.00;;;23.44;32.53;100499.66;5095322;28;20051;-45
2021/11/21 07:00:41;;;;;;;1.30;1.15;;;19.70;48.00;;;23.45;32.44;100500.50;5095246;28;20213;-45
2021/11/21 07:03:07;;;;;;;1.52;1.10;;;19.70;48.00;;;23.41;32.44;100496.38;5095624;28;20075;-41
2021/11/21 07:05:34;;;;;;;1.40;1.25;;;19.70;48.00;;;23.45;32.52;100503.16;5095331;28;20510;-45
2021/11/21 07:08:00;;;;;;;1.10;1.00;;;19.70;48.00;;;23.46;32.26;100505.72;5095131;28;20064;-42
2021/11/21 07:10:27;;;;;;;1.25;1.15;;;19.70;48.00;;;23.45;32.71;100503.16;5095265;28;20105;-42
2021/11/21 07:12:53;;;;;;;1.42;1.30;;;19.70;48.00;;;23.45;32.54;100509.34;5095130;28;20048;-46
2021/11/21 07:15:19;;;;;;;1.35;1.25;;;19.70;48.00;;;23.42;32.43;100500.72;5095433;28;20415;-43
2021/11/21 07:17:51;;;;;;;1.05;1.00;;;19.70;47.90;;;23.44;32.45;100501.47;5095830;28;20052;-41
2021/11/21 07:20:17;;;;;;;1.40;1.25;;;19.80;48.00;;;23.45;32.46;100512.00;5095238;28;20128;-42
2021/11/21 07:22:47;;;;;;;1.20;1.10;;;19.80;48.00;;;23.44;32.51;100510.31;5095060;28;20403;-43
2021/11/21 07:25:14;;;;;;;1.70;1.20;;;19.80;48.00;;;23.42;32.55;100508.72;5095148;28;20051;-42
2021/11/21 07:27:42;;;;;;;1.10;1.00;;;19.80;48.00;;;23.47;32.45;100520.78;5095170;28;20048;-45
2021/11/21 07:30:10;;;;;;;1.45;1.35;;;19.70;48.00;;;23.45;32.51;100514.69;5094940;28;20056;-42
2021/11/21 07:32:36;;;;;;;1.38;1.10;;;19.80;48.00;;;23.46;32.19;100520.88;5095296;28;20059;-43
2021/11/21 07:35:02;;;;;;;1.10;1.00;;;19.80;47.90;;;23.46;32.27;100527.06;5094829;28;20051;-44
2021/11/21 07:37:28;;;;;;;0.95;0.85;;;19.80;47.90;;;23.44;32.36;100518.34;5094248;28;20138;-43
2021/11/21 07:39:53;;;;;;;1.20;1.10;;;19.80;47.90;;;23.44;32.38;100521.00;5095033;28;20506;-42
2021/11/21 07:42:20;;;;;;;1.13;1.02;;;19.80;47.90;;;23.46;32.27;100526.22;5095193;28;20075;-42
2021/11/21 07:44:46;;;;;;;1.45;1.27;;;19.80;47.90;;;23.48;32.47;100526.94;5094740;28;20453;-43
2021/11/21 07:47:12;;;;;;;1.10;1.00;;;19.80;47.90;;;23.48;32.50;100529.63;5094830;28;20048;-41
2021/11/21 07:49:38;;;;;;;1.10;1.00;;;19.80;47.90;;;23.50;32.49;100543.69;5094398;28;20463;-41
2021/11/21 07:52:04;;;;;;;1.30;1.20;;;19.80;47.90;;;23.47;32.38;100533.25;5076601;28;20093;-42
2021/11/21 07:54:30;;;;;;;1.20;1.10;;;19.80;48.00;;;23.47;32.36;100536.78;5094761;28;20433;-42
2021/11/21 07:56:56;;;;;;;1.05;0.95;;;19.80;47.80;;;23.46;32.42;100531.56;5094648;28;20109;-42
2021/11/21 07:59:22;;;;;;;1.33;1.15;;;19.80;47.80;;;23.47;32.50;100534.09;5094651;28;20184;-46
2021/11/21 08:01:49;;;;;;;0.98;0.98;;;19.80;47.80;;;23.48;32.42;100545.63;5094527;28;20060;-46
2021/11/21 08:04:14;;;;;;;0.80;0.80;;;19.80;47.80;;;23.50;32.38;100541.00;5094530;28;20549;-47
2021/11/21 08:06:40;;;;;;;1.15;1.02;;;19.80;47.80;;;23.48;32.49;100534.94;5094995;28;20048;-44
2021/11/21 08:09:06;;;;;;;1.33;1.10;;;19.90;47.80;;;23.51;32.40;100556.06;5094132;28;20046;-44
2021/11/21 08:11:32;;;;;;;1.30;1.15;;;19.90;47.80;;;23.52;32.47;100551.56;5094416;28;20048;-46
2021/11/21 08:13:58;;;;;;;1.20;1.10;;;19.90;47.80;;;23.52;32.41;100546.22;5094402;28;20075;-45
2021/11/21 08:16:24;;;;;;;0.90;0.90;;;19.90;47.70;;;23.54;32.20;100554.97;5076751;28;20052;-47
2021/11/21 08:18:50;;;;;;;1.20;1.10;;;19.90;47.70;;;23.54;32.24;100560.28;5093926;28;20052;-44
2021/11/21 08:21:16;;;;;;;1.20;1.10;;;19.90;47.80;;;23.53;32.43;100562.13;5094183;28;20048;-44
2021/11/21 08:23:42;;;;;;;1.25;1.10;;;19.90;47.80;;;23.56;32.51;100563.72;5094241;28;20100;-44
2021/11/21 08:26:08;;;;;;;1.30;1.20;;;19.90;47.70;;;23.52;32.46;100554.22;5094230;28;20040;-44
2021/11/21 08:28:38;;;;;;;1.33;1.10;;;19.90;47.70;;;23.56;32.43;100561.88;5094639;28;20044;-43
2021/11/21 08:31:05;;;;;;;1.30;1.20;;;19.90;47.60;;;23.56;32.22;100566.38;5094630;28;20403;-47
2021/11/21 08:33:32;;;;;;;1.20;1.10;;;19.90;47.70;;;23.57;32.47;100566.28;5094436;28;20410;-47
2021/11/21 08:35:59;;;;;;;1.02;0.90;;;19.90;47.70;;;23.54;32.40;100555.84;5094041;28;20055;-43
2021/11/21 08:38:26;;;;;;;1.23;0.98;;;20.00;47.70;;;23.58;32.55;100554.59;5093905;28;20473;-46
2021/11/21 08:40:54;;;;;;;1.92;1.20;;;20.00;47.60;;;23.60;32.45;100567.84;5093764;28;20082;-42
2021/11/21 08:43:20;;;;;;;1.20;1.10;;;20.00;47.50;;;23.59;32.32;100567.00;5093983;28;20048;-45
2021/11/21 08:45:45;;;;;;;1.35;1.20;;;20.00;47.50;;;23.62;32.17;100566.75;5093907;28;20058;-43
2021/11/21 08:48:13;;;;;;;1.10;1.00;;;20.00;47.40;;;23.62;32.40;100550.75;5093560;28;20052;-45
2021/11/21 08:50:39;;;;;;;1.17;1.08;;;20.00;47.40;;;23.63;32.28;100554.25;5093617;28;20074;-45
2021/11/21 08:53:05;;;;;;;0.98;0.90;;;20.00;47.40;;;23.65;32.19;100561.16;5093707;28;20118;-45
2021/11/21 08:55:31;;;;;;;1.30;1.20;;;20.00;47.40;;;23.64;32.26;100556.81;5093736;28;20048;-44
2021/11/21 08:57:57;;;;;;;0.80;0.80;;;20.00;47.40;;;23.62;32.28;100558.75;5093582;28;20504;-43
2021/11/21 09:00:23;;;;;;;0.93;0.90;;;20.00;47.40;;;23.62;32.17;100569.44;5093650;28;20047;-43
2021/11/21 09:02:51;;;;;;;1.10;1.00;;;20.00;47.50;;;23.61;32.08;100566.88;5093496;28;20044;-45
2021/11/21 09:05:17;;;;;;;1.92;1.40;;;20.00;47.60;;;23.59;32.26;100569.66;5093485;28;20052;-42
2021/11/21 09:07:44;;;;;;;1.30;1.20;;;20.00;47.60;;;23.59;32.43;100575.00;5093595;28;20055;-45
2021/11/21 09:10:15;;;;;;;1.20;1.10;;;20.00;47.60;;;23.59;32.40;100572.34;5093504;28;20139;-46
2021/11/21 09:12:42;;;;;;;1.20;1.10;;;20.00;47.60;;;23.59;32.27;100561.66;5093694;28;20127;-43
2021/11/21 09:15:11;;;;;;;0.98;0.90;;;19.90;47.60;;;23.61;32.30;100577.56;5093721;28;20048;-43
2021/11/21 09:17:38;;;;;;;1.20;1.10;;;20.00;47.60;;;23.63;32.37;100578.28;5093280;28;20092;-42
2021/11/21 09:20:05;;;;;;;1.20;1.10;;;20.00;47.50;;;23.61;32.20;100567.72;5093024;28;20101;-42
2021/11/21 09:22:31;;;;;;;1.20;1.10;;;20.00;47.50;;;23.61;32.41;100573.06;5075069;28;20044;-45
2021/11/21 09:24:58;;;;;;;1.20;1.10;;;20.00;47.50;;;23.63;32.27;100571.13;5093233;28;20092;-43
2021/11/21 09:27:24;;;;;;;0.82;0.82;;;20.00;47.50;;;23.64;32.10;100570.16;5093565;28;20048;-44
2021/11/21 09:29:50;;;;;;;1.35;1.10;;;20.00;47.40;;;23.65;32.11;100573.66;5093016;28;20071;-46
2021/11/21 09:32:16;;;;;;;1.08;0.90;;;20.00;47.50;;;23.62;32.11;100571.22;5093188;28;20399;-42
2021/11/21 09:34:41;;;;;;;1.35;1.25;;;20.00;47.50;;;23.64;32.29;100566.66;5093221;28;20048;-43
2021/11/21 09:37:08;;;;;;;1.10;1.00;;;20.00;47.50;;;23.66;32.25;100572.72;5093474;28;20437;-43
2021/11/21 09:39:35;;;;;;;1.40;1.20;;;20.00;47.40;;;23.63;32.34;100576.44;5092813;28;20438;-43
2021/11/21 09:42:02;;;;;;;1.30;1.00;;;20.00;47.90;;;23.66;32.33;100584.22;5092952;28;20051;-43
2021/11/21 09:44:28;;;;;;;1.30;1.17;;;20.00;47.60;;;23.68;32.01;100584.09;5092899;28;20044;-45
2021/11/21 09:46:54;;;;;;;1.40;1.30;;;20.00;47.40;;;23.68;32.26;100589.44;5092870;28;20040;-45
2021/11/21 09:49:23;;;;;;;1.25;1.08;;;20.10;47.40;;;23.66;32.01;100580.72;5092916;28;20044;-43
2021/11/21 09:51:49;;;;;;;0.95;0.95;;;20.00;47.30;;;23.67;32.14;100579.72;5073701;28;20049;-44
2021/11/21 09:54:15;;;;;;;1.08;0.98;;;20.10;47.40;;;23.65;32.06;100577.16;5093185;28;20494;-44
2021/11/21 09:56:43;;;;;;;1.77;1.48;;;20.10;47.40;;;23.68;32.29;100578.78;5074797;28;20044;-45
2021/11/21 09:59:09;;;;;;;1.48;1.13;;;20.00;47.40;;;23.65;32.17;100579.00;5092066;28;20484;-45
2021/11/21 10:01:44;;;;;;;1.23;1.08;;;20.00;47.40;;;23.64;32.23;100583.50;5092715;28;20071;-44
2021/11/21 10:04:12;;;;;;;1.48;1.38;;;20.00;47.50;;;23.65;32.30;100579.00;5092744;28;20044;-44
2021/11/21 10:06:45;;;;;;;1.20;1.10;;;20.00;47.50;;;23.65;32.42;100579.84;5092950;28;20048;-44
2021/11/21 10:09:13;;;;;;;1.17;1.08;;;20.00;47.50;;;23.63;32.09;100581.78;5092774;28;20086;-43
2021/11/21 10:12:03;;;;;;;1.02;0.93;;;20.00;47.50;;;23.60;32.17;100575.84;5092649;28;20056;-43